sensor_id;sensor_type;location;lat;lon;timestamp;temperature;humidity
12726;DHT22;6427;49.754;6.106;2023-06-10T00:00:49;19.70;75.70
12726;DHT22;6427;49.754;6.106;2023-06-10T00:03:16;19.50;76.10
12726;DHT22;6427;49.754;6.106;2023-06-10T00:05:44;19.60;76.80
12726;DHT22;6427;49.754;6.106;2023-06-10T00:08:12;19.60;76.50
12726;DHT22;6427;49.754;6.106;2023-06-10T00:10:40;19.60;76.50
12726;DHT22;6427;49.754;6.106;2023-06-10T00:13:07;19.40;76.90
12726;DHT22;6427;49.754;6.106;2023-06-10T00:15:35;19.30;77.50
12726;DHT22;6427;49.754;6.106;2023-06-10T00:18:04;19.00;79.00
12726;DHT22;6427;49.754;6.106;2023-06-10T00:20:32;18.90;79.80
12726;DHT22;6427;49.754;6.106;2023-06-10T00:23:00;18.90;79.80
12726;DHT22;6427;49.754;6.106;2023-06-10T00:25:27;18.80;80.50
12726;DHT22;6427;49.754;6.106;2023-06-10T00:27:55;19.00;81.70
12726;DHT22;6427;49.754;6.106;2023-06-10T00:30:22;18.90;81.60
12726;DHT22;6427;49.754;6.106;2023-06-10T00:32:50;18.70;82.70
12726;DHT22;6427;49.754;6.106;2023-06-10T00:35:18;18.60;82.60
12726;DHT22;6427;49.754;6.106;2023-06-10T00:37:46;18.60;83.20
12726;DHT22;6427;49.754;6.106;2023-06-10T00:40:13;18.50;83.70
12726;DHT22;6427;49.754;6.106;2023-06-10T00:42:41;18.70;84.20
12726;DHT22;6427;49.754;6.106;2023-06-10T00:45:08;18.60;83.90
12726;DHT22;6427;49.754;6.106;2023-06-10T00:47:36;18.50;84.20
12726;DHT22;6427;49.754;6.106;2023-06-10T00:50:05;18.60;84.60
12726;DHT22;6427;49.754;6.106;2023-06-10T00:52:33;18.60;84.50
12726;DHT22;6427;49.754;6.106;2023-06-10T00:55:00;18.70;85.10
12726;DHT22;6427;49.754;6.106;2023-06-10T00:57:28;18.60;84.80
12726;DHT22;6427;49.754;6.106;2023-06-10T00:59:56;18.50;85.10
12726;DHT22;6427;49.754;6.106;2023-06-10T01:02:23;18.40;85.80
12726;DHT22;6427;49.754;6.106;2023-06-10T01:04:51;18.60;86.40
12726;DHT22;6427;49.754;6.106;2023-06-10T01:07:28;18.50;85.90
12726;DHT22;6427;49.754;6.106;2023-06-10T01:10:24;18.50;86.40
12726;DHT22;6427;49.754;6.106;2023-06-10T01:13:01;18.30;86.80
12726;DHT22;6427;49.754;6.106;2023-06-10T01:15:31;18.30;87.40
12726;DHT22;6427;49.754;6.106;2023-06-10T01:20:24;18.30;89.90
12726;DHT22;6427;49.754;6.106;2023-06-10T01:22:53;18.30;88.60
12726;DHT22;6427;49.754;6.106;2023-06-10T01:25:19;18.20;88.60
12726;DHT22;6427;49.754;6.106;2023-06-10T01:27:47;18.20;88.90
12726;DHT22;6427;49.754;6.106;2023-06-10T01:30:15;18.10;90.10
12726;DHT22;6427;49.754;6.106;2023-06-10T01:32:48;17.90;90.40
12726;DHT22;6427;49.754;6.106;2023-06-10T01:35:13;17.90;90.40
12726;DHT22;6427;49.754;6.106;2023-06-10T01:37:41;17.90;90.70
12726;DHT22;6427;49.754;6.106;2023-06-10T01:40:09;17.80;91.00
12726;DHT22;6427;49.754;6.106;2023-06-10T01:42:37;17.80;91.10
12726;DHT22;6427;49.754;6.106;2023-06-10T01:45:04;17.70;91.30
12726;DHT22;6427;49.754;6.106;2023-06-10T01:47:31;17.90;91.90
12726;DHT22;6427;49.754;6.106;2023-06-10T01:49:59;18.10;91.40
12726;DHT22;6427;49.754;6.106;2023-06-10T01:52:27;18.10;91.20
12726;DHT22;6427;49.754;6.106;2023-06-10T01:54:55;18.10;91.40
12726;DHT22;6427;49.754;6.106;2023-06-10T01:57:23;18.10;91.40
12726;DHT22;6427;49.754;6.106;2023-06-10T01:59:50;18.00;91.30
12726;DHT22;6427;49.754;6.106;2023-06-10T02:02:18;18.00;91.70
12726;DHT22;6427;49.754;6.106;2023-06-10T02:04:45;18.10;92.00
12726;DHT22;6427;49.754;6.106;2023-06-10T02:07:13;18.30;91.70
12726;DHT22;6427;49.754;6.106;2023-06-10T02:09:41;18.40;91.10
12726;DHT22;6427;49.754;6.106;2023-06-10T02:12:08;18.20;91.00
12726;DHT22;6427;49.754;6.106;2023-06-10T02:14:36;18.10;91.30
12726;DHT22;6427;49.754;6.106;2023-06-10T02:17:04;18.00;91.60
12726;DHT22;6427;49.754;6.106;2023-06-10T02:19:33;17.90;92.00
12726;DHT22;6427;49.754;6.106;2023-06-10T02:22:00;17.90;91.90
12726;DHT22;6427;49.754;6.106;2023-06-10T02:24:28;17.80;92.20
12726;DHT22;6427;49.754;6.106;2023-06-10T02:26:56;17.70;92.80
12726;DHT22;6427;49.754;6.106;2023-06-10T02:29:23;17.60;92.80
12726;DHT22;6427;49.754;6.106;2023-06-10T02:31:51;17.60;93.40
12726;DHT22;6427;49.754;6.106;2023-06-10T02:34:18;17.50;93.30
12726;DHT22;6427;49.754;6.106;2023-06-10T02:36:46;17.50;93.60
12726;DHT22;6427;49.754;6.106;2023-06-10T02:39:14;17.40;93.80
12726;DHT22;6427;49.754;6.106;2023-06-10T02:41:41;17.70;94.30
12726;DHT22;6427;49.754;6.106;2023-06-10T02:44:10;17.60;94.30
12726;DHT22;6427;49.754;6.106;2023-06-10T02:46:38;17.60;94.50
12726;DHT22;6427;49.754;6.106;2023-06-10T02:49:06;17.60;94.80
12726;DHT22;6427;49.754;6.106;2023-06-10T02:51:33;17.60;94.60
12726;DHT22;6427;49.754;6.106;2023-06-10T02:54:01;17.80;94.70
12726;DHT22;6427;49.754;6.106;2023-06-10T02:56:29;18.00;94.40
12726;DHT22;6427;49.754;6.106;2023-06-10T02:58:57;17.90;94.00
12726;DHT22;6427;49.754;6.106;2023-06-10T03:01:25;17.90;94.00
12726;DHT22;6427;49.754;6.106;2023-06-10T03:03:53;17.90;94.00
12726;DHT22;6427;49.754;6.106;2023-06-10T03:06:22;17.80;93.90
12726;DHT22;6427;49.754;6.106;2023-06-10T03:08:49;17.80;93.90
12726;DHT22;6427;49.754;6.106;2023-06-10T03:11:17;17.70;94.10
12726;DHT22;6427;49.754;6.106;2023-06-10T03:13:45;17.60;94.40
12726;DHT22;6427;49.754;6.106;2023-06-10T03:16:12;17.70;94.70
12726;DHT22;6427;49.754;6.106;2023-06-10T03:18:40;17.80;94.10
12726;DHT22;6427;49.754;6.106;2023-06-10T03:21:09;17.60;94.40
12726;DHT22;6427;49.754;6.106;2023-06-10T03:23:36;17.60;94.30
12726;DHT22;6427;49.754;6.106;2023-06-10T03:26:04;17.50;94.70
12726;DHT22;6427;49.754;6.106;2023-06-10T03:28:34;17.40;95.00
12726;DHT22;6427;49.754;6.106;2023-06-10T03:31:03;17.40;95.20
12726;DHT22;6427;49.754;6.106;2023-06-10T03:33:30;17.50;95.00
12726;DHT22;6427;49.754;6.106;2023-06-10T03:35:58;17.30;95.30
12726;DHT22;6427;49.754;6.106;2023-06-10T03:38:26;17.20;95.80
12726;DHT22;6427;49.754;6.106;2023-06-10T03:40:54;17.10;95.70
12726;DHT22;6427;49.754;6.106;2023-06-10T03:43:22;17.10;95.90
12726;DHT22;6427;49.754;6.106;2023-06-10T03:45:50;17.00;96.40
12726;DHT22;6427;49.754;6.106;2023-06-10T03:48:17;17.00;96.40
12726;DHT22;6427;49.754;6.106;2023-06-10T03:50:46;16.90;96.90
12726;DHT22;6427;49.754;6.106;2023-06-10T03:53:14;16.80;97.30
12726;DHT22;6427;49.754;6.106;2023-06-10T03:55:42;16.80;97.30
12726;DHT22;6427;49.754;6.106;2023-06-10T03:58:09;16.80;97.50
12726;DHT22;6427;49.754;6.106;2023-06-10T04:00:37;16.90;98.10
12726;DHT22;6427;49.754;6.106;2023-06-10T04:03:05;16.90;98.00
12726;DHT22;6427;49.754;6.106;2023-06-10T04:05:34;16.80;98.10
12726;DHT22;6427;49.754;6.106;2023-06-10T04:08:01;16.80;98.10
12726;DHT22;6427;49.754;6.106;2023-06-10T04:10:30;16.80;98.50
12726;DHT22;6427;49.754;6.106;2023-06-10T04:12:58;16.80;99.10
12726;DHT22;6427;49.754;6.106;2023-06-10T04:15:26;16.70;98.70
12726;DHT22;6427;49.754;6.106;2023-06-10T04:17:54;17.00;98.80
12726;DHT22;6427;49.754;6.106;2023-06-10T04:20:22;17.00;98.80
12726;DHT22;6427;49.754;6.106;2023-06-10T04:22:49;17.00;99.00
12726;DHT22;6427;49.754;6.106;2023-06-10T04:25:17;16.90;99.10
12726;DHT22;6427;49.754;6.106;2023-06-10T04:27:45;16.90;99.20
12726;DHT22;6427;49.754;6.106;2023-06-10T04:30:12;16.90;99.30
12726;DHT22;6427;49.754;6.106;2023-06-10T04:32:40;16.90;99.50
12726;DHT22;6427;49.754;6.106;2023-06-10T04:35:08;17.00;99.80
12726;DHT22;6427;49.754;6.106;2023-06-10T04:37:35;17.00;99.80
12726;DHT22;6427;49.754;6.106;2023-06-10T04:40:03;17.00;99.90
12726;DHT22;6427;49.754;6.106;2023-06-10T04:42:31;17.10;99.90
12726;DHT22;6427;49.754;6.106;2023-06-10T04:44:58;17.20;99.90
12726;DHT22;6427;49.754;6.106;2023-06-10T04:47:26;17.20;99.90
12726;DHT22;6427;49.754;6.106;2023-06-10T04:49:53;17.30;99.90
12726;DHT22;6427;49.754;6.106;2023-06-10T04:52:22;17.70;99.60
12726;DHT22;6427;49.754;6.106;2023-06-10T04:54:49;17.70;99.60
12726;DHT22;6427;49.754;6.106;2023-06-10T04:57:17;17.80;99.20
12726;DHT22;6427;49.754;6.106;2023-06-10T04:59:44;17.80;99.20
12726;DHT22;6427;49.754;6.106;2023-06-10T05:02:12;17.80;99.20
12726;DHT22;6427;49.754;6.106;2023-06-10T05:04:40;17.90;99.30
12726;DHT22;6427;49.754;6.106;2023-06-10T05:07:07;17.90;99.30
12726;DHT22;6427;49.754;6.106;2023-06-10T05:09:35;18.00;99.30
12726;DHT22;6427;49.754;6.106;2023-06-10T05:12:03;18.10;99.50
12726;DHT22;6427;49.754;6.106;2023-06-10T05:14:30;18.10;99.10
12726;DHT22;6427;49.754;6.106;2023-06-10T05:16:58;18.20;99.10
12726;DHT22;6427;49.754;6.106;2023-06-10T05:19:25;18.20;99.00
12726;DHT22;6427;49.754;6.106;2023-06-10T05:21:53;18.30;98.80
12726;DHT22;6427;49.754;6.106;2023-06-10T05:24:20;18.40;98.50
12726;DHT22;6427;49.754;6.106;2023-06-10T05:26:49;18.60;97.90
12726;DHT22;6427;49.754;6.106;2023-06-10T05:29:16;18.60;97.90
12726;DHT22;6427;49.754;6.106;2023-06-10T05:31:44;18.60;97.50
12726;DHT22;6427;49.754;6.106;2023-06-10T05:34:12;18.90;97.10
12726;DHT22;6427;49.754;6.106;2023-06-10T05:36:39;19.00;96.60
12726;DHT22;6427;49.754;6.106;2023-06-10T05:39:09;19.10;96.40
12726;DHT22;6427;49.754;6.106;2023-06-10T05:41:35;19.10;96.40
12726;DHT22;6427;49.754;6.106;2023-06-10T05:44:02;19.20;96.40
12726;DHT22;6427;49.754;6.106;2023-06-10T05:46:30;19.20;96.20
12726;DHT22;6427;49.754;6.106;2023-06-10T05:48:57;19.30;96.10
12726;DHT22;6427;49.754;6.106;2023-06-10T05:51:25;19.30;95.90
12726;DHT22;6427;49.754;6.106;2023-06-10T05:53:54;19.50;96.00
12726;DHT22;6427;49.754;6.106;2023-06-10T05:56:22;19.50;95.70
12726;DHT22;6427;49.754;6.106;2023-06-10T05:58:49;19.50;95.70
12726;DHT22;6427;49.754;6.106;2023-06-10T06:01:18;19.70;95.50
12726;DHT22;6427;49.754;6.106;2023-06-10T06:03:46;19.80;95.40
12726;DHT22;6427;49.754;6.106;2023-06-10T06:06:14;20.10;94.90
12726;DHT22;6427;49.754;6.106;2023-06-10T06:08:42;20.10;94.90
12726;DHT22;6427;49.754;6.106;2023-06-10T06:11:10;20.20;94.50
12726;DHT22;6427;49.754;6.106;2023-06-10T06:13:37;20.40;94.20
12726;DHT22;6427;49.754;6.106;2023-06-10T06:16:05;20.50;94.00
12726;DHT22;6427;49.754;6.106;2023-06-10T06:18:32;20.50;93.80
12726;DHT22;6427;49.754;6.106;2023-06-10T06:21:00;20.50;93.60
12726;DHT22;6427;49.754;6.106;2023-06-10T06:23:28;20.60;93.60
12726;DHT22;6427;49.754;6.106;2023-06-10T06:25:56;20.80;93.40
12726;DHT22;6427;49.754;6.106;2023-06-10T06:28:23;20.80;93.40
12726;DHT22;6427;49.754;6.106;2023-06-10T06:30:52;21.20;92.60
12726;DHT22;6427;49.754;6.106;2023-06-10T06:33:19;21.20;92.90
12726;DHT22;6427;49.754;6.106;2023-06-10T06:35:47;21.30;92.10
12726;DHT22;6427;49.754;6.106;2023-06-10T06:38:15;21.40;92.00
12726;DHT22;6427;49.754;6.106;2023-06-10T06:40:42;21.50;91.30
12726;DHT22;6427;49.754;6.106;2023-06-10T06:43:10;21.60;91.00
12726;DHT22;6427;49.754;6.106;2023-06-10T06:45:37;21.70;90.60
12726;DHT22;6427;49.754;6.106;2023-06-10T06:48:05;21.80;90.10
12726;DHT22;6427;49.754;6.106;2023-06-10T06:50:33;22.30;87.40
12726;DHT22;6427;49.754;6.106;2023-06-10T06:53:01;22.20;86.60
12726;DHT22;6427;49.754;6.106;2023-06-10T06:55:29;22.30;86.00
12726;DHT22;6427;49.754;6.106;2023-06-10T06:57:56;22.40;85.90
12726;DHT22;6427;49.754;6.106;2023-06-10T07:00:24;22.50;85.30
12726;DHT22;6427;49.754;6.106;2023-06-10T07:02:51;22.60;85.00
12726;DHT22;6427;49.754;6.106;2023-06-10T07:05:19;22.70;84.20
12726;DHT22;6427;49.754;6.106;2023-06-10T07:07:47;22.80;83.60
12726;DHT22;6427;49.754;6.106;2023-06-10T07:10:14;22.80;82.90
12726;DHT22;6427;49.754;6.106;2023-06-10T07:12:42;22.90;82.50
12726;DHT22;6427;49.754;6.106;2023-06-10T07:15:10;23.10;81.50
12726;DHT22;6427;49.754;6.106;2023-06-10T07:17:38;23.10;81.40
12726;DHT22;6427;49.754;6.106;2023-06-10T07:20:05;23.20;81.10
12726;DHT22;6427;49.754;6.106;2023-06-10T07:22:33;23.30;80.80
12726;DHT22;6427;49.754;6.106;2023-06-10T07:25:01;23.40;80.10
12726;DHT22;6427;49.754;6.106;2023-06-10T07:27:28;23.50;79.30
12726;DHT22;6427;49.754;6.106;2023-06-10T07:29:56;23.60;78.70
12726;DHT22;6427;49.754;6.106;2023-06-10T07:32:23;23.80;78.30
12726;DHT22;6427;49.754;6.106;2023-06-10T07:34:51;23.80;77.50
12726;DHT22;6427;49.754;6.106;2023-06-10T07:37:19;24.00;76.90
12726;DHT22;6427;49.754;6.106;2023-06-10T07:39:47;24.20;75.30
12726;DHT22;6427;49.754;6.106;2023-06-10T07:42:15;24.10;75.20
12726;DHT22;6427;49.754;6.106;2023-06-10T07:44:42;24.40;73.00
12726;DHT22;6427;49.754;6.106;2023-06-10T07:47:10;24.50;73.30
12726;DHT22;6427;49.754;6.106;2023-06-10T07:49:37;24.60;72.30
12726;DHT22;6427;49.754;6.106;2023-06-10T07:52:05;24.70;71.40
12726;DHT22;6427;49.754;6.106;2023-06-10T07:54:33;24.80;70.80
12726;DHT22;6427;49.754;6.106;2023-06-10T07:57:00;24.90;70.30
12726;DHT22;6427;49.754;6.106;2023-06-10T07:59:28;25.00;69.70
12726;DHT22;6427;49.754;6.106;2023-06-10T08:01:56;25.30;68.20
12726;DHT22;6427;49.754;6.106;2023-06-10T08:04:23;25.40;67.20
12726;DHT22;6427;49.754;6.106;2023-06-10T08:06:51;25.60;65.60
12726;DHT22;6427;49.754;6.106;2023-06-10T08:09:18;25.60;64.50
12726;DHT22;6427;49.754;6.106;2023-06-10T08:11:49;25.60;64.50
12726;DHT22;6427;49.754;6.106;2023-06-10T08:14:17;25.70;63.60
12726;DHT22;6427;49.754;6.106;2023-06-10T08:16:45;25.70;63.60
12726;DHT22;6427;49.754;6.106;2023-06-10T08:19:13;26.00;61.40
12726;DHT22;6427;49.754;6.106;2023-06-10T08:21:41;25.90;61.40
12726;DHT22;6427;49.754;6.106;2023-06-10T08:24:09;26.00;61.40
12726;DHT22;6427;49.754;6.106;2023-06-10T08:26:36;26.00;61.00
12726;DHT22;6427;49.754;6.106;2023-06-10T08:29:03;26.10;60.30
12726;DHT22;6427;49.754;6.106;2023-06-10T08:31:31;26.20;59.30
12726;DHT22;6427;49.754;6.106;2023-06-10T08:33:59;26.40;58.60
12726;DHT22;6427;49.754;6.106;2023-06-10T08:36:26;26.40;58.20
12726;DHT22;6427;49.754;6.106;2023-06-10T08:38:54;26.40;58.00
12726;DHT22;6427;49.754;6.106;2023-06-10T08:41:21;26.40;58.00
12726;DHT22;6427;49.754;6.106;2023-06-10T08:44:01;26.50;58.20
12726;DHT22;6427;49.754;6.106;2023-06-10T08:46:17;26.60;58.30
12726;DHT22;6427;49.754;6.106;2023-06-10T08:48:45;26.80;56.60
12726;DHT22;6427;49.754;6.106;2023-06-10T08:51:13;26.80;56.00
12726;DHT22;6427;49.754;6.106;2023-06-10T08:53:46;26.80;55.50
12726;DHT22;6427;49.754;6.106;2023-06-10T08:56:09;26.80;55.50
12726;DHT22;6427;49.754;6.106;2023-06-10T08:58:36;26.80;55.30
12726;DHT22;6427;49.754;6.106;2023-06-10T09:01:04;26.90;55.40
12726;DHT22;6427;49.754;6.106;2023-06-10T09:03:31;27.10;55.00
12726;DHT22;6427;49.754;6.106;2023-06-10T09:05:59;27.10;55.10
12726;DHT22;6427;49.754;6.106;2023-06-10T09:08:27;27.10;56.10
12726;DHT22;6427;49.754;6.106;2023-06-10T09:10:55;27.00;56.40
12726;DHT22;6427;49.754;6.106;2023-06-10T09:13:22;27.10;56.90
12726;DHT22;6427;49.754;6.106;2023-06-10T09:15:50;27.20;56.80
12726;DHT22;6427;49.754;6.106;2023-06-10T09:18:18;27.20;56.20
12726;DHT22;6427;49.754;6.106;2023-06-10T09:20:45;27.30;56.00
12726;DHT22;6427;49.754;6.106;2023-06-10T09:23:13;27.30;56.40
12726;DHT22;6427;49.754;6.106;2023-06-10T09:25:41;27.40;54.90
12726;DHT22;6427;49.754;6.106;2023-06-10T09:28:15;27.40;54.90
12726;DHT22;6427;49.754;6.106;2023-06-10T09:30:43;27.40;54.40
12726;DHT22;6427;49.754;6.106;2023-06-10T09:33:12;27.90;53.00
12726;DHT22;6427;49.754;6.106;2023-06-10T09:35:44;27.80;52.90
12726;DHT22;6427;49.754;6.106;2023-06-10T09:38:06;27.90;52.70
12726;DHT22;6427;49.754;6.106;2023-06-10T09:40:34;28.00;52.10
12726;DHT22;6427;49.754;6.106;2023-06-10T09:43:02;27.90;51.90
12726;DHT22;6427;49.754;6.106;2023-06-10T09:45:31;28.00;51.60
12726;DHT22;6427;49.754;6.106;2023-06-10T09:48:01;28.00;51.60
12726;DHT22;6427;49.754;6.106;2023-06-10T09:50:32;28.10;51.10
12726;DHT22;6427;49.754;6.106;2023-06-10T09:52:57;28.30;51.20
12726;DHT22;6427;49.754;6.106;2023-06-10T09:55:25;28.30;51.10
12726;DHT22;6427;49.754;6.106;2023-06-10T09:57:53;28.40;50.30
12726;DHT22;6427;49.754;6.106;2023-06-10T10:00:21;28.60;49.00
12726;DHT22;6427;49.754;6.106;2023-06-10T10:02:48;28.60;48.50
12726;DHT22;6427;49.754;6.106;2023-06-10T10:05:15;28.70;47.90
12726;DHT22;6427;49.754;6.106;2023-06-10T10:07:43;28.60;47.70
12726;DHT22;6427;49.754;6.106;2023-06-10T10:10:11;28.60;48.20
12726;DHT22;6427;49.754;6.106;2023-06-10T10:12:38;28.70;48.00
12726;DHT22;6427;49.754;6.106;2023-06-10T10:15:09;28.70;48.10
12726;DHT22;6427;49.754;6.106;2023-06-10T10:17:39;28.70;47.40
12726;DHT22;6427;49.754;6.106;2023-06-10T10:20:04;28.80;46.80
12726;DHT22;6427;49.754;6.106;2023-06-10T10:22:38;28.80;46.70
12726;DHT22;6427;49.754;6.106;2023-06-10T10:25:10;28.80;46.00
12726;DHT22;6427;49.754;6.106;2023-06-10T10:27:36;28.70;46.10
12726;DHT22;6427;49.754;6.106;2023-06-10T10:30:03;28.70;46.70
12726;DHT22;6427;49.754;6.106;2023-06-10T10:33:16;28.80;46.40
12726;DHT22;6427;49.754;6.106;2023-06-10T10:35:08;28.90;46.30
12726;DHT22;6427;49.754;6.106;2023-06-10T10:37:35;29.10;46.10
12726;DHT22;6427;49.754;6.106;2023-06-10T10:40:02;29.20;45.50
12726;DHT22;6427;49.754;6.106;2023-06-10T10:42:30;29.30;45.40
12726;DHT22;6427;49.754;6.106;2023-06-10T10:44:57;29.40;45.50
12726;DHT22;6427;49.754;6.106;2023-06-10T10:47:26;29.60;45.60
12726;DHT22;6427;49.754;6.106;2023-06-10T10:49:52;29.60;45.50
12726;DHT22;6427;49.754;6.106;2023-06-10T10:52:21;29.60;45.40
12726;DHT22;6427;49.754;6.106;2023-06-10T10:54:48;29.60;45.40
12726;DHT22;6427;49.754;6.106;2023-06-10T10:57:19;29.60;45.10
12726;DHT22;6427;49.754;6.106;2023-06-10T11:02:36;29.50;45.20
12726;DHT22;6427;49.754;6.106;2023-06-10T11:05:03;29.50;44.80
12726;DHT22;6427;49.754;6.106;2023-06-10T11:07:32;29.90;42.70
12726;DHT22;6427;49.754;6.106;2023-06-10T11:12:56;29.90;42.70
12726;DHT22;6427;49.754;6.106;2023-06-10T11:15:01;29.90;42.70
12726;DHT22;6427;49.754;6.106;2023-06-10T11:17:29;29.80;43.10
12726;DHT22;6427;49.754;6.106;2023-06-10T11:19:58;29.90;43.40
12726;DHT22;6427;49.754;6.106;2023-06-10T11:22:25;30.00;42.70
12726;DHT22;6427;49.754;6.106;2023-06-10T11:24:52;30.00;42.60
12726;DHT22;6427;49.754;6.106;2023-06-10T11:27:23;30.00;41.80
12726;DHT22;6427;49.754;6.106;2023-06-10T11:32:31;30.10;41.60
12726;DHT22;6427;49.754;6.106;2023-06-10T11:34:59;30.20;41.60
12726;DHT22;6427;49.754;6.106;2023-06-10T11:37:26;30.20;41.60
12726;DHT22;6427;49.754;6.106;2023-06-10T11:39:54;30.30;41.50
12726;DHT22;6427;49.754;6.106;2023-06-10T11:42:24;30.50;40.80
12726;DHT22;6427;49.754;6.106;2023-06-10T11:44:52;30.70;40.50
12726;DHT22;6427;49.754;6.106;2023-06-10T11:47:20;30.90;39.20
12726;DHT22;6427;49.754;6.106;2023-06-10T11:49:57;30.90;39.20
12726;DHT22;6427;49.754;6.106;2023-06-10T11:52:28;30.80;39.40
12726;DHT22;6427;49.754;6.106;2023-06-10T11:54:55;30.80;39.40
12726;DHT22;6427;49.754;6.106;2023-06-10T11:57:22;30.70;38.60
12726;DHT22;6427;49.754;6.106;2023-06-10T11:59:51;30.60;37.90
12726;DHT22;6427;49.754;6.106;2023-06-10T12:02:18;30.60;37.90
12726;DHT22;6427;49.754;6.106;2023-06-10T12:04:47;30.70;37.80
12726;DHT22;6427;49.754;6.106;2023-06-10T12:07:20;30.70;37.50
12726;DHT22;6427;49.754;6.106;2023-06-10T12:09:45;30.70;37.80
12726;DHT22;6427;49.754;6.106;2023-06-10T12:12:12;30.70;37.90
12726;DHT22;6427;49.754;6.106;2023-06-10T12:14:59;30.70;37.60
12726;DHT22;6427;49.754;6.106;2023-06-10T12:20:03;30.80;37.20
12726;DHT22;6427;49.754;6.106;2023-06-10T12:22:39;30.80;37.00
12726;DHT22;6427;49.754;6.106;2023-06-10T12:25:03;30.80;37.00
12726;DHT22;6427;49.754;6.106;2023-06-10T12:27:32;30.70;36.50
12726;DHT22;6427;49.754;6.106;2023-06-10T12:29:59;30.70;36.90
12726;DHT22;6427;49.754;6.106;2023-06-10T12:32:45;30.70;36.70
12726;DHT22;6427;49.754;6.106;2023-06-10T12:35:14;30.70;36.50
12726;DHT22;6427;49.754;6.106;2023-06-10T12:37:40;30.90;36.70
12726;DHT22;6427;49.754;6.106;2023-06-10T12:40:07;30.90;36.70
12726;DHT22;6427;49.754;6.106;2023-06-10T12:42:38;30.90;37.00
12726;DHT22;6427;49.754;6.106;2023-06-10T12:45:06;31.10;35.70
12726;DHT22;6427;49.754;6.106;2023-06-10T12:47:34;31.00;36.10
12726;DHT22;6427;49.754;6.106;2023-06-10T12:50:04;31.20;36.30
12726;DHT22;6427;49.754;6.106;2023-06-10T12:52:32;31.30;36.10
12726;DHT22;6427;49.754;6.106;2023-06-10T12:54:59;31.40;35.20
12726;DHT22;6427;49.754;6.106;2023-06-10T12:57:27;31.40;33.60
12726;DHT22;6427;49.754;6.106;2023-06-10T12:59:54;31.50;33.10
12726;DHT22;6427;49.754;6.106;2023-06-10T13:02:22;31.50;33.00
12726;DHT22;6427;49.754;6.106;2023-06-10T13:04:50;31.60;33.10
12726;DHT22;6427;49.754;6.106;2023-06-10T13:07:18;31.60;32.90
12726;DHT22;6427;49.754;6.106;2023-06-10T13:09:46;31.60;32.90
12726;DHT22;6427;49.754;6.106;2023-06-10T13:12:13;31.60;32.30
12726;DHT22;6427;49.754;6.106;2023-06-10T13:14:41;31.60;32.30
12726;DHT22;6427;49.754;6.106;2023-06-10T13:17:08;31.70;32.30
12726;DHT22;6427;49.754;6.106;2023-06-10T13:19:36;31.90;32.10
12726;DHT22;6427;49.754;6.106;2023-06-10T13:22:04;32.00;31.40
12726;DHT22;6427;49.754;6.106;2023-06-10T13:24:31;32.00;32.20
12726;DHT22;6427;49.754;6.106;2023-06-10T13:26:59;32.00;32.50
12726;DHT22;6427;49.754;6.106;2023-06-10T13:29:26;32.20;31.90
12726;DHT22;6427;49.754;6.106;2023-06-10T13:31:54;32.20;31.80
12726;DHT22;6427;49.754;6.106;2023-06-10T13:34:22;32.20;31.60
12726;DHT22;6427;49.754;6.106;2023-06-10T13:36:49;32.30;31.90
12726;DHT22;6427;49.754;6.106;2023-06-10T13:39:17;32.20;31.60
12726;DHT22;6427;49.754;6.106;2023-06-10T13:41:44;32.20;31.50
12726;DHT22;6427;49.754;6.106;2023-06-10T13:44:12;32.40;31.60
12726;DHT22;6427;49.754;6.106;2023-06-10T13:46:40;32.40;31.70
12726;DHT22;6427;49.754;6.106;2023-06-10T13:49:07;32.40;31.60
12726;DHT22;6427;49.754;6.106;2023-06-10T13:51:36;32.40;31.70
12726;DHT22;6427;49.754;6.106;2023-06-10T13:54:03;32.40;31.60
12726;DHT22;6427;49.754;6.106;2023-06-10T13:56:31;32.50;32.00
12726;DHT22;6427;49.754;6.106;2023-06-10T13:58:58;32.60;31.90
12726;DHT22;6427;49.754;6.106;2023-06-10T14:01:26;32.60;31.70
12726;DHT22;6427;49.754;6.106;2023-06-10T14:03:54;32.40;31.80
12726;DHT22;6427;49.754;6.106;2023-06-10T14:06:21;32.20;32.00
12726;DHT22;6427;49.754;6.106;2023-06-10T14:08:49;32.00;32.20
12726;DHT22;6427;49.754;6.106;2023-06-10T14:11:16;31.70;32.40
12726;DHT22;6427;49.754;6.106;2023-06-10T14:13:44;31.70;33.00
12726;DHT22;6427;49.754;6.106;2023-06-10T14:16:12;31.70;32.70
12726;DHT22;6427;49.754;6.106;2023-06-10T14:18:39;31.80;33.00
12726;DHT22;6427;49.754;6.106;2023-06-10T14:21:08;32.00;32.10
12726;DHT22;6427;49.754;6.106;2023-06-10T14:23:35;32.00;32.10
12726;DHT22;6427;49.754;6.106;2023-06-10T14:26:03;32.10;32.10
12726;DHT22;6427;49.754;6.106;2023-06-10T14:28:30;32.40;31.00
12726;DHT22;6427;49.754;6.106;2023-06-10T14:30:58;32.30;30.70
12726;DHT22;6427;49.754;6.106;2023-06-10T14:33:26;32.30;31.50
12726;DHT22;6427;49.754;6.106;2023-06-10T14:35:53;32.40;31.00
12726;DHT22;6427;49.754;6.106;2023-06-10T14:38:21;32.40;30.90
12726;DHT22;6427;49.754;6.106;2023-06-10T14:40:48;32.40;31.30
12726;DHT22;6427;49.754;6.106;2023-06-10T14:43:16;32.60;31.50
12726;DHT22;6427;49.754;6.106;2023-06-10T14:45:44;32.80;31.50
12726;DHT22;6427;49.754;6.106;2023-06-10T14:48:11;32.90;31.90
12726;DHT22;6427;49.754;6.106;2023-06-10T14:50:39;33.10;31.60
12726;DHT22;6427;49.754;6.106;2023-06-10T14:53:06;33.20;31.20
12726;DHT22;6427;49.754;6.106;2023-06-10T14:55:34;33.50;31.60
12726;DHT22;6427;49.754;6.106;2023-06-10T14:58:01;33.80;30.60
12726;DHT22;6427;49.754;6.106;2023-06-10T15:00:29;33.90;30.60
12726;DHT22;6427;49.754;6.106;2023-06-10T15:02:57;34.00;30.40
12726;DHT22;6427;49.754;6.106;2023-06-10T15:05:24;34.20;30.20
12726;DHT22;6427;49.754;6.106;2023-06-10T15:07:53;34.20;31.00
12726;DHT22;6427;49.754;6.106;2023-06-10T15:10:21;34.20;31.40
12726;DHT22;6427;49.754;6.106;2023-06-10T15:12:49;34.30;30.90
12726;DHT22;6427;49.754;6.106;2023-06-10T15:15:16;34.30;30.40
12726;DHT22;6427;49.754;6.106;2023-06-10T15:17:44;34.30;30.70
12726;DHT22;6427;49.754;6.106;2023-06-10T15:20:12;34.30;31.10
12726;DHT22;6427;49.754;6.106;2023-06-10T15:22:40;34.30;31.00
12726;DHT22;6427;49.754;6.106;2023-06-10T15:25:07;34.40;31.00
12726;DHT22;6427;49.754;6.106;2023-06-10T15:27:35;34.60;30.30
12726;DHT22;6427;49.754;6.106;2023-06-10T15:30:03;34.70;30.50
12726;DHT22;6427;49.754;6.106;2023-06-10T15:32:30;34.80;30.80
12726;DHT22;6427;49.754;6.106;2023-06-10T15:34:58;34.80;31.10
12726;DHT22;6427;49.754;6.106;2023-06-10T15:37:25;34.80;31.20
12726;DHT22;6427;49.754;6.106;2023-06-10T15:39:53;34.80;31.10
12726;DHT22;6427;49.754;6.106;2023-06-10T15:42:21;35.00;30.70
12726;DHT22;6427;49.754;6.106;2023-06-10T15:44:49;35.10;30.90
12726;DHT22;6427;49.754;6.106;2023-06-10T15:47:16;35.10;30.90
12726;DHT22;6427;49.754;6.106;2023-06-10T15:49:44;35.10;30.90
12726;DHT22;6427;49.754;6.106;2023-06-10T15:52:12;35.10;31.00
12726;DHT22;6427;49.754;6.106;2023-06-10T15:54:39;35.30;31.00
12726;DHT22;6427;49.754;6.106;2023-06-10T15:57:08;35.40;30.00
12726;DHT22;6427;49.754;6.106;2023-06-10T15:59:36;35.50;29.80
12726;DHT22;6427;49.754;6.106;2023-06-10T16:02:05;35.60;30.10